Time;durP1;ratioP1;P1;durP2;ratioP2;P2;SDS_P1;SDS_P2;PMS_P1;PMS_P2;Temp;Humidity;BMP_temperature;BMP_pressure;BME280_temperature;BME280_humidity;BME280_pressure;Samples;Min_cycle;Max_cycle;Signal;HPM_P1;HPM_P2
2021/01/05 00:01:42;;;;;;;18.83;12.47;;;;;;;2.77;95.79;99875.34;659851;217;23635;-70
2021/01/05 00:04:10;;;;;;;19.17;11.60;;;;;;;2.71;95.99;99875.77;660042;217;24755;-71
2021/01/05 00:06:38;;;;;;;21.30;11.60;;;;;;;2.61;96.31;99874.73;649470;221;24824;-70
2021/01/05 00:09:06;;;;;;;20.00;11.50;;;;;;;2.54;96.94;99879.47;661433;216;25838;-70
2021/01/05 00:11:34;;;;;;;14.57;9.47;;;;;;;2.61;97.40;99887.56;663117;216;24765;-70
2021/01/05 00:14:02;;;;;;;18.10;10.07;;;;;;;2.58;97.56;99880.90;635913;224;24886;-71
2021/01/05 00:16:30;;;;;;;19.37;11.17;;;;;;;2.54;97.92;99879.47;662825;216;24769;-71
2021/01/05 00:18:58;;;;;;;18.75;13.40;;;;;;;2.81;96.99;99876.77;656658;216;32584;-70
2021/01/05 00:21:26;;;;;;;20.00;12.30;;;;;;;2.55;96.58;99873.41;640813;222;23710;-70
2021/01/05 00:23:53;;;;;;;18.93;11.57;;;;;;;2.50;96.20;99870.77;660492;217;24760;-70
2021/01/05 00:26:22;;;;;;;21.13;12.70;;;;;;;2.61;96.28;99874.27;661183;217;24750;-70
2021/01/05 00:28:50;;;;;;;19.97;12.10;;;;;;;2.49;96.25;99874.27;661582;217;25064;-70
2021/01/05 00:31:17;;;;;;;23.62;14.80;;;;;;;2.59;96.90;99872.73;640995;221;32782;-70
2021/01/05 00:33:45;;;;;;;22.43;12.13;;;;;;;2.57;96.17;99869.45;663682;216;23654;-70
2021/01/05 00:36:13;;;;;;;18.10;11.33;;;;;;;2.54;96.81;99870.48;634882;225;24859;-70
2021/01/05 00:38:41;;;;;;;24.60;12.70;;;;;;;2.55;96.98;99871.30;663139;216;24766;-70
2021/01/05 00:41:09;;;;;;;23.50;12.97;;;;;;;2.45;97.83;99859.54;663731;215;24758;-71
2021/01/05 00:43:38;;;;;;;20.27;11.50;;;;;;;2.48;98.53;99863.64;662817;215;24756;-71
2021/01/05 00:46:05;;;;;;;22.60;12.80;;;;;;;2.47;98.94;99862.82;664856;212;24894;-70
2021/01/05 00:48:32;;;;;;;19.43;12.23;;;;;;;2.49;98.46;99859.69;637983;225;29132;-70
2021/01/05 00:51:00;;;;;;;22.10;12.77;;;;;;;2.52;98.33;99856.09;635661;224;26978;-70
2021/01/05 00:53:28;;;;;;;19.47;11.93;;;;;;;2.57;98.48;99861.75;644056;221;24842;-72
2021/01/05 00:55:56;;;;;;;22.07;13.10;;;;;;;2.58;98.94;99865.50;639688;221;24801;-70
2021/01/05 00:58:24;;;;;;;18.77;12.07;;;;;;;2.50;99.73;99860.05;646971;221;24811;-70
2021/01/05 01:00:52;;;;;;;19.00;11.40;;;;;;;2.54;99.96;99870.95;642208;221;28021;-70
2021/01/05 01:03:19;;;;;;;21.30;11.43;;;;;;;2.54;100.00;99870.95;646411;221;25959;-70
2021/01/05 01:05:48;;;;;;;21.07;12.67;;;;;;;2.54;100.00;99866.64;639762;221;24807;-70
2021/01/05 01:08:16;;;;;;;17.67;11.17;;;;;;;2.57;100.00;99869.45;644163;221;24824;-70
2021/01/05 01:10:43;;;;;;;18.03;11.90;;;;;;;2.54;100.00;99866.64;634501;224;24889;-71
2021/01/05 01:13:11;;;;;;;17.50;11.43;;;;;;;2.51;100.00;99863.43;635171;225;24840;-72
2021/01/05 01:15:39;;;;;;;15.20;10.13;;;;;;;2.50;100.00;99870.31;663407;216;24766;-70
2021/01/05 01:18:07;;;;;;;20.40;10.90;;;;;;;2.51;100.00;99861.68;643800;221;24828;-70
2021/01/05 01:20:35;;;;;;;16.20;10.53;;;;;;;2.51;100.00;99869.84;639154;221;24799;-70
2021/01/05 01:23:03;;;;;;;18.87;10.70;;;;;;;2.46;100.00;99868.06;646189;221;24795;-71
2021/01/05 01:25:31;;;;;;;14.10;9.90;;;;;;;2.43;100.00;99871.66;643728;221;24788;-69
2021/01/05 01:27:59;;;;;;;14.77;10.43;;;;;;;2.51;100.00;99872.41;663391;217;24747;-70
2021/01/05 01:30:27;;;;;;;13.50;9.97;;;;;;;2.42;100.00;99876.89;661527;217;24773;-70
2021/01/05 01:32:55;;;;;;;13.40;9.30;;;;;;;2.43;100.00;99875.97;661753;216;24757;-70
2021/01/05 01:35:22;;;;;;;18.80;10.37;;;;;;;2.45;100.00;99879.25;635918;226;24895;-71
2021/01/05 01:37:50;;;;;;;16.60;10.00;;;;;;;2.50;100.00;99882.31;661115;216;26910;-71
2021/01/05 01:40:21;;;;;;;16.27;10.47;;;;;;;2.46;100.00;99878.33;633726;222;24832;-71
2021/01/05 01:42:48;;;;;;;16.40;9.87;;;;;;;2.50;100.00;99875.44;660026;217;24766;-70
2021/01/05 01:45:22;;;;;;;17.20;10.10;;;;;;;2.42;100.00;99873.05;635217;224;24855;-71
2021/01/05 01:47:50;;;;;;;14.10;9.20;;;;;;;2.49;100.00;99875.55;661544;216;25051;-70
2021/01/05 01:50:18;;;;;;;17.85;11.20;;;;;;;2.55;100.00;99863.14;658318;215;32592;-70
2021/01/05 01:53:09;;;;;;;17.10;11.90;;;;;;;2.52;100.00;99866.35;662673;215;23674;-70
2021/01/05 01:55:38;;;;;;;14.50;11.25;;;;;;;2.63;100.00;99873.70;647110;215;32585;-75
2021/01/05 01:58:21;;;;;;;14.20;10.10;;;;;;;2.55;100.00;99865.70;647806;221;23659;-73
2021/01/05 02:00:53;;;;;;;14.73;9.40;;;;;;;2.53;100.00;99867.99;631638;226;27009;-74
2021/01/05 02:03:39;;;;;;;18.00;9.30;;;;;;;2.50;100.00;99872.05;665012;215;24802;-75
2021/01/05 02:06:14;;;;;;;13.67;9.33;;;;;;;2.58;100.00;99866.78;647820;221;24814;-72
2021/01/05 02:08:45;;;;;;;16.37;11.78;;;;;;;2.70;100.00;99865.14;659545;215;32578;-72
2021/01/05 02:11:19;;;;;;;15.80;10.07;;;;;;;2.66;100.00;99861.11;634846;225;23697;-72
2021/01/05 02:13:55;;;;;;;16.63;11.10;;;;;;;2.64;100.00;99857.83;663043;215;24765;-74
2021/01/05 02:16:27;;;;;;;18.70;10.20;;;;;;;2.62;100.00;99861.79;634546;225;24873;-72
2021/01/05 02:18:55;;;;;;;18.00;12.93;;;;;;;2.65;100.00;99867.99;629423;225;32917;-72
2021/01/05 02:21:23;;;;;;;16.87;11.77;;;;;;;2.60;100.00;99868.78;635042;221;23712;-72
2021/01/05 02:24:01;;;;;;;14.70;10.43;;;;;;;2.56;100.00;99867.34;661331;216;24767;-72
2021/01/05 02:26:27;;;;;;;14.90;10.40;;;;;;;2.62;100.00;99874.62;634125;226;24858;-72
2021/01/05 02:28:55;;;;;;;17.73;11.47;;;;;;;2.61;100.00;99864.46;662901;216;24742;-72
2021/01/05 02:31:27;;;;;;;16.27;11.07;;;;;;;2.52;100.00;99870.20;659638;217;24770;-72
2021/01/05 02:33:57;;;;;;;15.97;10.00;;;;;;;2.33;100.00;99873.18;657917;217;24774;-72
2021/01/05 02:36:39;;;;;;;16.40;10.60;;;;;;;2.33;100.00;99868.05;662128;217;25009;-72
2021/01/05 02:39:18;;;;;;;18.73;13.05;;;;;;;2.44;100.00;99872.48;630835;226;33260;-72
2021/01/05 02:41:49;;;;;;;16.00;10.90;;;;;;;2.38;100.00;99868.55;662806;217;23632;-74
2021/01/05 02:44:25;;;;;;;16.57;12.10;;;;;;;2.43;100.00;99868.27;640937;221;32769;-73
2021/01/05 02:46:53;;;;;;;14.63;10.63;;;;;;;2.34;100.00;99865.84;637879;222;24844;-72
2021/01/05 02:49:34;;;;;;;14.43;10.23;;;;;;;2.36;100.00;99868.66;634784;226;24900;-72
2021/01/05 02:52:15;;;;;;;14.20;9.70;;;;;;;2.40;100.00;99868.02;662206;216;24749;-72
2021/01/05 02:55:04;;;;;;;16.32;12.60;;;;;;;2.62;100.00;99869.48;656363;216;33054;-73
2021/01/05 02:57:42;;;;;;;15.90;11.10;;;;;;;2.65;100.00;99866.71;649514;221;23950;-73
2021/01/05 03:00:19;;;;;;;14.80;10.30;;;;;;;2.47;100.00;99853.02;663974;214;24767;-77
2021/01/05 03:03:17;;;;;;;16.17;9.63;;;;;;;2.56;100.00;99861.39;665526;215;27977;-72
2021/01/05 03:05:46;;;;;;;17.93;10.80;;;;;;;2.58;100.00;99860.83;636862;221;24802;-72
2021/01/05 03:08:14;;;;;;;16.80;10.00;;;;;;;2.58;100.00;99854.41;661996;216;24820;-72
2021/01/05 03:10:46;;;;;;;14.87;10.70;;;;;;;2.66;100.00;99863.22;635787;225;24848;-72
2021/01/05 03:13:22;;;;;;;18.33;9.90;;;;;;;2.65;100.00;99865.42;635815;225;24835;-74
2021/01/05 03:15:51;;;;;;;15.07;10.03;;;;;;;2.64;100.00;99866.35;663074;216;26926;-72
2021/01/05 03:18:21;;;;;;;12.83;8.63;;;;;;;2.67;100.00;99861.04;647765;221;24793;-72
2021/01/05 03:20:50;;;;;;;18.30;12.85;;;;;;;2.80;100.00;99860.17;656899;216;32586;-70
2021/01/05 03:23:18;;;;;;;15.10;10.87;;;;;;;2.73;100.00;99865.39;661643;216;23644;-70
2021/01/05 03:25:46;;;;;;;15.10;10.50;;;;;;;2.64;100.00;99869.39;635507;225;24872;-71
2021/01/05 03:28:14;;;;;;;16.93;10.60;;;;;;;2.51;100.00;99860.86;662022;216;24864;-70
2021/01/05 03:30:42;;;;;;;16.07;10.60;;;;;;;2.47;100.00;99861.53;648796;221;24810;-70
2021/01/05 03:33:10;;;;;;;14.77;9.40;;;;;;;2.44;100.00;99866.06;661995;216;24745;-71
2021/01/05 03:35:38;;;;;;;17.27;10.87;;;;;;;2.50;100.00;99870.77;662586;216;25031;-71
2021/01/05 03:38:06;;;;;;;17.05;12.63;;;;;;;2.57;100.00;99868.17;656686;216;32666;-73
2021/01/05 03:40:34;;;;;;;15.10;10.70;;;;;;;2.56;100.00;99866.53;632836;225;24018;-72
2021/01/05 03:43:02;;;;;;;18.35;12.82;;;;;;;2.70;100.00;99866.89;628928;222;32972;-70
2021/01/05 03:45:30;;;;;;;16.20;11.67;;;;;;;2.57;100.00;99863.03;637551;224;23693;-70
2021/01/05 03:47:58;;;;;;;15.70;10.70;;;;;;;2.60;100.00;99864.92;662696;216;24864;-71
2021/01/05 03:50:26;;;;;;;14.87;10.17;;;;;;;2.55;100.00;99860.58;647207;221;24817;-70
2021/01/05 03:52:54;;;;;;;16.23;10.37;;;;;;;2.41;100.00;99863.24;647610;221;24803;-71
2021/01/05 03:55:22;;;;;;;14.40;10.77;;;;;;;2.37;100.00;99867.73;635825;226;25949;-71
2021/01/05 03:57:50;;;;;;;19.77;11.77;;;;;;;2.39;100.00;99872.76;647139;221;24815;-70
2021/01/05 04:00:24;;;;;;;15.07;10.50;;;;;;;2.42;100.00;99867.91;646893;221;24801;-70
2021/01/05 04:02:46;;;;;;;17.00;11.43;;;;;;;2.41;100.00;99867.09;662881;216;24745;-71
2021/01/05 04:05:14;;;;;;;15.60;10.47;;;;;;;2.32;100.00;99864.66;633905;225;24857;-70
2021/01/05 04:07:42;;;;;;;16.60;10.13;;;;;;;2.43;100.00;99874.22;646894;221;24845;-70
2021/01/05 04:10:10;;;;;;;20.75;13.13;;;;;;;2.56;100.00;99868.63;628991;224;32961;-71
2021/01/05 04:12:38;;;;;;;20.17;14.40;;;;;;;2.64;100.00;99868.10;645059;220;32913;-71
2021/01/05 04:15:08;;;;;;;19.90;12.30;;;;;;;2.48;100.00;99872.16;662485;216;23634;-71
2021/01/05 04:17:35;;;;;;;19.43;11.87;;;;;;;2.37;100.00;99874.14;658348;216;24768;-70
2021/01/05 04:20:04;;;;;;;19.63;11.37;;;;;;;2.43;100.00;99871.66;635118;225;24844;-71
2021/01/05 04:22:32;;;;;;;19.27;11.13;;;;;;;2.44;100.00;99867.34;661369;216;25062;-70
2021/01/05 04:25:00;;;;;;;21.80;11.87;;;;;;;2.43;100.00;99869.55;634696;222;24821;-71
2021/01/05 04:27:28;;;;;;;15.27;10.70;;;;;;;2.45;100.00;99868.98;638712;223;25249;-70
2021/01/05 04:29:55;;;;;;;18.37;12.78;;;;;;;2.55;100.00;99877.26;630280;225;43933;-71
2021/01/05 04:32:23;;;;;;;17.07;12.20;;;;;;;2.42;100.00;99870.02;632898;225;23702;-72
2021/01/05 04:34:51;;;;;;;19.10;11.97;;;;;;;2.36;100.00;99868.66;635721;226;31220;-70
2021/01/05 04:37:19;;;;;;;19.17;13.22;;;;;;;2.50;100.00;99872.05;628102;226;43649;-70
2021/01/05 04:39:47;;;;;;;17.33;11.63;;;;;;;2.59;100.00;99876.59;661573;216;23642;-71
2021/01/05 04:42:17;;;;;;;19.07;11.07;;;;;;;2.51;100.00;99879.65;635775;225;24848;-70
2021/01/05 04:44:47;;;;;;;17.77;10.97;;;;;;;2.49;100.00;99876.83;662079;216;24788;-70
2021/01/05 04:47:18;;;;;;;15.30;10.40;;;;;;;2.49;100.00;99878.11;635414;225;24896;-72
2021/01/05 04:49:57;;;;;;;16.23;10.17;;;;;;;2.47;100.00;99879.97;662756;216;24815;-70
2021/01/05 04:52:26;;;;;;;18.10;13.00;;;;;;;2.45;100.00;99879.25;635204;222;33085;-73
2021/01/05 04:54:55;;;;;;;18.83;12.13;;;;;;;2.25;100.00;99885.25;634831;225;23710;-71
2021/01/05 04:57:23;;;;;;;18.98;13.22;;;;;;;2.28;100.00;99886.78;629627;226;33235;-70
2021/01/05 04:59:51;;;;;;;19.67;13.62;;;;;;;2.34;100.00;99887.19;630050;226;33230;-70
2021/01/05 05:02:23;;;;;;;16.47;11.20;;;;;;;2.38;100.00;99892.47;635199;226;23996;-70
2021/01/05 05:04:55;;;;;;;21.07;14.07;;;;;;;2.44;100.00;99889.16;658374;216;32637;-70
2021/01/05 05:07:25;;;;;;;18.90;11.87;;;;;;;2.34;100.00;99887.19;634296;226;23693;-70
2021/01/05 05:09:54;;;;;;;17.73;11.43;;;;;;;2.31;100.00;99886.11;646474;221;25082;-70
2021/01/05 05:12:30;;;;;;;17.00;10.13;;;;;;;2.17;100.00;99881.06;648233;221;24819;-70
2021/01/05 05:14:58;;;;;;;17.23;11.40;;;;;;;2.19;100.00;99889.94;660773;217;24977;-72
2021/01/05 05:17:39;;;;;;;18.37;12.43;;;;;;;2.09;100.00;99887.14;641510;221;33140;-74
2021/01/05 05:20:13;;;;;;;20.67;13.23;;;;;;;2.05;100.00;99890.83;637573;224;23684;-72
2021/01/05 05:22:47;;;;;;;17.40;11.30;;;;;;;2.02;100.00;99892.31;643893;219;25835;-73
2021/01/05 05:25:15;;;;;;;19.80;12.95;;;;;;;2.11;100.00;99896.01;656240;216;43331;-72
2021/01/05 05:27:43;;;;;;;22.35;13.30;;;;;;;2.09;100.00;99901.24;644672;221;32816;-72
2021/01/05 05:30:12;;;;;;;19.47;11.50;;;;;;;2.05;100.00;99902.37;648548;221;23674;-74
2021/01/05 05:32:40;;;;;;;18.80;11.03;;;;;;;2.01;100.00;99910.73;663811;215;25282;-72
2021/01/05 05:35:19;;;;;;;19.93;11.67;;;;;;;2.07;100.00;99915.91;635440;225;24855;-73
2021/01/05 05:37:50;;;;;;;16.83;10.73;;;;;;;1.98;100.00;99913.95;637063;225;24855;-72
2021/01/05 05:40:20;;;;;;;19.48;12.82;;;;;;;2.06;100.00;99909.96;659213;215;32640;-73
2021/01/05 05:43:17;;;;;;;18.80;11.63;;;;;;;2.08;100.00;99915.81;635613;226;23706;-72
2021/01/05 05:45:45;;;;;;;20.70;13.30;;;;;;;2.15;100.00;99925.23;629966;225;32916;-73
2021/01/05 05:48:18;;;;;;;19.52;13.35;;;;;;;2.27;100.00;99924.91;659289;215;32674;-72
2021/01/05 05:50:47;;;;;;;19.03;11.70;;;;;;;2.18;100.00;99912.66;647781;220;23690;-73
2021/01/05 05:53:15;;;;;;;16.63;10.70;;;;;;;2.05;100.00;99922.42;647977;221;24792;-72
2021/01/05 05:55:45;;;;;;;15.73;10.43;;;;;;;1.96;100.00;99918.34;647995;221;24795;-72
2021/01/05 05:58:14;;;;;;;14.70;10.30;;;;;;;1.97;100.00;99923.83;660331;216;24797;-72
2021/01/05 06:00:42;;;;;;;17.13;10.37;;;;;;;1.90;100.00;99925.97;635352;226;24838;-72
2021/01/05 06:03:11;;;;;;;19.50;11.17;;;;;;;1.92;100.00;99929.72;633887;226;24851;-73
2021/01/05 06:05:38;;;;;;;13.97;9.63;;;;;;;1.92;100.00;99924.59;660078;217;24752;-72
2021/01/05 06:08:07;;;;;;;19.30;10.63;;;;;;;1.96;100.00;99928.59;643669;221;24808;-73
2021/01/05 06:10:35;;;;;;;19.65;12.43;;;;;;;2.01;100.00;99929.14;637225;221;32750;-72
2021/01/05 06:13:03;;;;;;;19.67;11.10;;;;;;;2.00;100.00;99932.63;647960;221;23701;-72
2021/01/05 06:15:33;;;;;;;19.40;10.83;;;;;;;1.96;100.00;99929.41;662037;217;24757;-72
2021/01/05 06:17:59;;;;;;;16.37;10.80;;;;;;;1.90;100.00;99923.87;634244;226;24854;-72
2021/01/05 06:20:27;;;;;;;16.97;9.57;;;;;;;1.90;100.00;99925.97;633780;226;24893;-73
2021/01/05 06:22:55;;;;;;;15.63;9.37;;;;;;;1.86;100.00;99917.30;663586;215;25475;-72
2021/01/05 06:25:23;;;;;;;20.83;9.67;;;;;;;1.91;100.00;99919.92;647696;220;24793;-72
2021/01/05 06:27:50;;;;;;;15.03;10.07;;;;;;;1.90;100.00;99931.56;636182;225;24844;-74
2021/01/05 06:30:19;;;;;;;16.10;10.40;;;;;;;1.94;100.00;99936.39;660489;217;24785;-72
2021/01/05 06:32:47;;;;;;;18.13;10.60;;;;;;;2.03;100.00;99946.53;662358;214;24788;-74
2021/01/05 06:35:15;;;;;;;16.57;10.37;;;;;;;1.94;100.00;99935.10;637334;225;24858;-73
2021/01/05 06:37:43;;;;;;;18.02;11.85;;;;;;;2.00;100.00;99930.06;660101;215;32878;-73
2021/01/05 06:40:11;;;;;;;19.30;11.50;;;;;;;2.04;100.00;99940.02;641584;221;23701;-73
2021/01/05 06:42:39;;;;;;;19.30;10.27;;;;;;;2.03;100.00;99947.81;662210;216;24758;-72
2021/01/05 06:45:08;;;;;;;17.50;10.10;;;;;;;2.15;100.00;99939.34;636035;225;24892;-72
2021/01/05 06:47:36;;;;;;;18.12;12.07;;;;;;;2.18;100.00;99951.14;651680;216;32629;-73
2021/01/05 06:50:05;;;;;;;18.20;11.27;;;;;;;2.20;100.00;99956.53;634169;226;23740;-70
2021/01/05 06:52:33;;;;;;;17.73;11.13;;;;;;;2.15;100.00;99959.86;634568;226;28030;-71
2021/01/05 06:55:01;;;;;;;17.13;9.67;;;;;;;2.18;100.00;99958.84;663802;215;24773;-70
2021/01/05 06:57:28;;;;;;;13.70;8.67;;;;;;;2.16;100.00;99955.09;660606;216;24731;-69
2021/01/05 06:59:56;;;;;;;19.70;11.88;;;;;;;2.15;100.00;99961.14;641733;221;43668;-70
2021/01/05 07:02:24;;;;;;;13.43;8.90;;;;;;;2.13;100.00;99965.55;635451;223;23745;-72
2021/01/05 07:04:52;;;;;;;14.47;9.17;;;;;;;2.07;100.00;99965.47;646561;221;25340;-69
2021/01/05 07:07:20;;;;;;;17.70;10.63;;;;;;;2.02;100.00;99963.66;661818;216;24757;-71
2021/01/05 07:09:48;;;;;;;17.00;10.50;;;;;;;2.12;100.00;99961.34;663709;215;24835;-70
2021/01/05 07:12:16;;;;;;;15.33;9.33;;;;;;;2.09;100.00;99963.62;635912;226;24849;-71
2021/01/05 07:14:44;;;;;;;16.40;9.93;;;;;;;2.03;100.00;99961.92;661214;216;29039;-69
2021/01/05 07:17:12;;;;;;;18.10;10.43;;;;;;;2.05;100.00;99966.48;646632;221;24866;-70
2021/01/05 07:19:40;;;;;;;16.00;10.03;;;;;;;2.08;100.00;99960.70;662133;216;28977;-69
2021/01/05 07:22:07;;;;;;;17.47;9.63;;;;;;;2.03;100.00;99962.73;663489;216;24740;-73
2021/01/05 07:24:35;;;;;;;16.07;10.10;;;;;;;1.99;100.00;99956.63;632145;226;32313;-70
2021/01/05 07:27:05;;;;;;;18.93;10.00;;;;;;;2.00;100.00;99963.41;664575;216;24811;-70
2021/01/05 07:29:32;;;;;;;13.60;8.90;;;;;;;2.03;100.00;99958.07;643370;222;24808;-70
2021/01/05 07:32:00;;;;;;;15.77;9.40;;;;;;;1.99;100.00;99958.73;661381;217;24737;-71
2021/01/05 07:34:28;;;;;;;17.83;9.90;;;;;;;1.96;100.00;99965.77;635690;226;24888;-69
2021/01/05 07:36:56;;;;;;;14.50;9.83;;;;;;;1.96;100.00;99965.77;633642;226;24881;-69
2021/01/05 07:39:24;;;;;;;17.70;10.57;;;;;;;2.02;100.00;99969.25;634039;226;28047;-69
2021/01/05 07:41:51;;;;;;;16.83;10.27;;;;;;;1.99;100.00;99975.41;635265;226;24876;-70
2021/01/05 07:44:19;;;;;;;18.80;10.10;;;;;;;2.04;100.00;99977.66;664384;214;24765;-68
2021/01/05 07:46:47;;;;;;;16.30;9.30;;;;;;;2.08;100.00;99976.55;636166;225;24848;-69
2021/01/05 07:49:15;;;;;;;20.05;11.75;;;;;;;2.25;100.00;99981.45;630061;225;32888;-70
2021/01/05 07:51:47;;;;;;;17.90;10.80;;;;;;;2.09;100.00;99984.59;664592;216;23653;-69
2021/01/05 07:54:15;;;;;;;17.07;10.30;;;;;;;2.16;100.00;99987.16;661363;216;24894;-71
2021/01/05 07:56:45;;;;;;;15.93;10.23;;;;;;;2.17;100.00;99981.56;648417;221;26965;-72
2021/01/05 07:59:13;;;;;;;17.65;11.65;;;;;;;2.27;100.00;99982.63;655634;216;32600;-72
2021/01/05 08:01:40;;;;;;;20.40;10.50;;;;;;;2.21;100.00;99974.84;638707;224;23677;-72
2021/01/05 08:04:08;;;;;;;19.23;9.90;;;;;;;2.03;100.00;99981.16;662157;216;24758;-72
2021/01/05 08:06:39;;;;;;;18.10;11.20;;;;;;;2.16;100.00;99982.02;635889;221;32738;-72
2021/01/05 08:09:07;;;;;;;18.73;10.40;;;;;;;2.22;100.00;99984.19;662022;216;23642;-69
2021/01/05 08:11:37;;;;;;;14.87;9.13;;;;;;;2.25;100.00;99981.45;657909;216;24758;-70
2021/01/05 08:14:05;;;;;;;16.67;10.10;;;;;;;2.32;100.00;99982.69;634833;225;24861;-70
2021/01/05 08:16:33;;;;;;;15.00;9.10;;;;;;;2.32;100.00;99980.58;631930;225;24995;-69
2021/01/05 08:19:01;;;;;;;14.40;8.80;;;;;;;2.30;100.00;99984.53;661177;216;24782;-70
2021/01/05 08:21:28;;;;;;;16.00;9.33;;;;;;;2.26;100.00;99985.66;635709;226;24890;-69
2021/01/05 08:23:56;;;;;;;16.00;9.83;;;;;;;2.23;100.00;99984.55;634906;225;26963;-70
2021/01/05 08:26:24;;;;;;;16.63;9.30;;;;;;;2.26;100.00;99983.09;634900;225;24872;-70
2021/01/05 08:28:52;;;;;;;16.27;9.80;;;;;;;2.24;100.00;99982.34;662903;216;24826;-72
2021/01/05 08:31:21;;;;;;;18.67;10.13;;;;;;;2.30;100.00;99987.09;663847;216;25892;-70
2021/01/05 08:33:48;;;;;;;15.13;9.63;;;;;;;2.33;100.00;99982.22;639625;221;24812;-70
2021/01/05 08:36:16;;;;;;;16.77;9.63;;;;;;;2.24;100.00;99984.91;641081;221;24824;-70
2021/01/05 08:38:44;;;;;;;17.33;9.57;;;;;;;2.38;100.00;99982.28;637898;221;24837;-70
2021/01/05 08:41:12;;;;;;;13.37;9.00;;;;;;;2.41;100.00;99983.84;642505;220;24854;-70
2021/01/05 08:43:41;;;;;;;13.70;9.30;;;;;;;2.48;100.00;99982.98;660982;217;26053;-70
2021/01/05 08:46:09;;;;;;;18.10;11.30;;;;;;;2.67;100.00;99977.00;614342;225;33144;-72
2021/01/05 08:48:39;;;;;;;15.47;10.17;;;;;;;2.58;100.00;99972.48;634868;226;23733;-72
2021/01/05 08:51:07;;;;;;;14.30;9.13;;;;;;;2.52;100.00;99976.72;661520;216;24854;-70
2021/01/05 08:53:35;;;;;;;13.30;8.53;;;;;;;2.47;100.00;99971.07;633312;226;24860;-70
2021/01/05 08:56:03;;;;;;;16.13;9.40;;;;;;;2.52;100.00;99974.97;635103;223;24820;-71
2021/01/05 08:58:31;;;;;;;14.47;9.00;;;;;;;2.48;100.00;99976.56;663388;215;24819;-70
2021/01/05 09:00:59;;;;;;;16.37;9.67;;;;;;;2.58;100.00;99979.72;663014;216;24737;-73
2021/01/05 09:03:27;;;;;;;16.33;9.23;;;;;;;2.61;100.00;99976.95;637492;224;24811;-72
2021/01/05 09:05:55;;;;;;;13.80;9.30;;;;;;;2.58;100.00;99972.02;637142;224;25913;-70
2021/01/05 09:08:26;;;;;;;15.43;9.10;;;;;;;2.51;100.00;99968.66;636739;225;24870;-70
2021/01/05 09:10:51;;;;;;;16.83;10.87;;;;;;;2.55;100.00;99979.11;637163;225;24835;-70
2021/01/05 09:13:19;;;;;;;15.63;9.00;;;;;;;2.52;100.00;99979.28;663077;216;26854;-70
2021/01/05 09:15:47;;;;;;;18.53;10.43;;;;;;;2.55;100.00;99977.82;635780;225;28036;-70
2021/01/05 09:18:14;;;;;;;15.00;9.40;;;;;;;2.58;100.00;99976.33;634606;226;24859;-70
2021/01/05 09:20:42;;;;;;;14.57;9.60;;;;;;;2.66;100.00;99975.35;632939;225;24859;-70
2021/01/05 09:23:10;;;;;;;15.63;8.27;;;;;;;2.63;100.00;99968.68;662532;215;24993;-70
2021/01/05 09:25:39;;;;;;;16.50;9.50;;;;;;;2.48;100.00;99968.40;660231;216;24854;-70
2021/01/05 09:28:07;;;;;;;13.73;9.07;;;;;;;2.36;100.00;99971.30;632963;225;30729;-69
2021/01/05 09:30:35;;;;;;;15.70;8.97;;;;;;;2.38;100.00;99965.59;634291;226;28125;-69
2021/01/05 09:33:03;;;;;;;17.60;8.30;;;;;;;2.44;100.00;99968.71;633623;225;24894;-70
2021/01/05 09:35:33;;;;;;;17.67;9.27;;;;;;;2.43;100.00;99970.91;662473;216;24777;-69
2021/01/05 09:37:58;;;;;;;15.70;11.10;;;;;;;2.51;100.00;99970.77;657187;216;33026;-70
2021/01/05 09:40:26;;;;;;;15.70;10.23;;;;;;;2.51;100.00;99972.05;635630;225;23720;-70
2021/01/05 09:42:54;;;;;;;17.33;10.00;;;;;;;2.51;100.00;99972.50;660657;216;29013;-71
2021/01/05 09:45:22;;;;;;;16.27;11.40;;;;;;;2.63;100.00;99967.86;631251;224;32853;-70
2021/01/05 09:47:51;;;;;;;15.67;10.10;;;;;;;2.62;100.00;99968.32;661118;217;23708;-71
2021/01/05 09:50:19;;;;;;;13.90;9.00;;;;;;;2.54;100.00;99966.73;634333;226;24878;-71
2021/01/05 09:52:47;;;;;;;18.30;9.10;;;;;;;2.56;100.00;99970.48;633868;226;25146;-70
2021/01/05 09:55:15;;;;;;;15.60;9.03;;;;;;;2.64;100.00;99975.45;634717;225;24934;-70
2021/01/05 09:57:44;;;;;;;13.77;9.00;;;;;;;2.73;100.00;99974.50;633576;226;24888;-72
2021/01/05 10:00:13;;;;;;;17.33;9.30;;;;;;;2.67;100.00;99975.28;645784;221;24814;-71
2021/01/05 10:02:41;;;;;;;15.73;9.50;;;;;;;2.62;100.00;99972.63;661842;216;24753;-72
2021/01/05 10:05:10;;;;;;;13.43;8.90;;;;;;;2.63;100.00;99978.13;661436;216;24762;-71
2021/01/05 10:07:38;;;;;;;14.17;9.80;;;;;;;2.67;100.00;99980.41;634213;225;24819;-71
2021/01/05 10:10:07;;;;;;;13.10;9.53;;;;;;;2.63;100.00;99973.81;649179;221;24783;-70
2021/01/05 10:12:35;;;;;;;12.70;9.20;;;;;;;2.60;100.00;99982.19;636229;225;24848;-71
2021/01/05 10:15:03;;;;;;;14.83;9.33;;;;;;;2.62;100.00;99981.62;636640;225;24821;-71
2021/01/05 10:17:31;;;;;;;15.87;10.10;;;;;;;2.51;100.00;99980.20;648276;221;24785;-71
2021/01/05 10:19:59;;;;;;;15.60;10.13;;;;;;;2.62;100.00;99985.00;664254;215;24753;-70
2021/01/05 10:22:26;;;;;;;18.50;11.00;;;;;;;2.70;100.00;99981.95;636452;225;24832;-70
2021/01/05 10:24:54;;;;;;;17.93;10.40;;;;;;;2.76;100.00;99977.69;636525;225;24844;-70
2021/01/05 10:27:23;;;;;;;18.93;11.70;;;;;;;2.65;100.00;99974.99;648957;221;24787;-70
2021/01/05 10:29:50;;;;;;;16.33;11.80;;;;;;;2.67;100.00;99980.41;647899;221;24797;-71
2021/01/05 10:32:18;;;;;;;21.70;12.70;;;;;;;2.72;100.00;99986.98;647153;221;24795;-70
2021/01/05 10:34:46;;;;;;;17.10;11.67;;;;;;;2.68;100.00;99982.52;647273;221;24835;-71
2021/01/05 10:37:14;;;;;;;19.70;12.17;;;;;;;2.75;100.00;99985.48;648115;220;24782;-72
2021/01/05 10:39:42;;;;;;;21.47;13.33;;;;;;;2.73;100.00;99980.45;647452;221;24784;-71
2021/01/05 10:42:10;;;;;;;18.60;11.30;;;;;;;2.73;100.00;99984.77;648359;220;24826;-72
2021/01/05 10:44:38;;;;;;;18.50;12.20;;;;;;;2.78;100.00;99977.58;649540;220;24779;-72
2021/01/05 10:47:06;;;;;;;17.27;11.40;;;;;;;2.81;100.00;99978.66;647884;221;24827;-71
2021/01/05 10:49:34;;;;;;;16.27;11.47;;;;;;;2.88;100.00;99970.45;634602;226;24841;-71
2021/01/05 10:52:02;;;;;;;19.57;11.90;;;;;;;2.78;100.00;99973.73;634141;226;24826;-70
2021/01/05 10:54:30;;;;;;;17.63;11.60;;;;;;;2.81;100.00;99973.05;634751;226;24821;-70
2021/01/05 10:56:58;;;;;;;18.27;11.90;;;;;;;2.74;100.00;99971.83;662480;216;24925;-71
2021/01/05 10:59:26;;;;;;;20.97;12.83;;;;;;;2.74;100.00;99965.41;646515;221;24784;-71
2021/01/05 11:01:55;;;;;;;19.00;12.00;;;;;;;2.86;100.00;99968.45;663195;216;24730;-71
2021/01/05 11:04:22;;;;;;;16.60;11.17;;;;;;;2.90;100.00;99964.75;661064;217;24773;-70
2021/01/05 11:06:53;;;;;;;17.10;11.70;;;;;;;2.90;100.00;99966.03;646901;221;27995;-70
2021/01/05 11:09:21;;;;;;;21.27;12.10;;;;;;;2.86;100.00;99955.62;636268;226;24818;-71
2021/01/05 11:11:49;;;;;;;18.70;10.97;;;;;;;2.81;100.00;99961.50;664670;216;24750;-73
2021/01/05 11:14:17;;;;;;;19.70;12.98;;;;;;;2.68;100.00;99948.68;641204;221;32762;-70
2021/01/05 11:16:48;;;;;;;18.73;12.57;;;;;;;2.72;100.00;99954.42;637997;224;23673;-70
2021/01/05 11:19:16;;;;;;;21.07;13.23;;;;;;;2.76;100.00;99952.01;661597;216;28953;-70
2021/01/05 11:21:50;;;;;;;20.67;11.90;;;;;;;2.83;100.00;99951.16;636053;225;24843;-71
2021/01/05 11:24:18;;;;;;;19.50;11.33;;;;;;;2.88;100.00;99952.94;634171;225;24872;-71
2021/01/05 11:26:45;;;;;;;18.63;11.87;;;;;;;2.84;100.00;99954.90;635710;225;24822;-71
2021/01/05 11:29:13;;;;;;;20.03;12.10;;;;;;;2.85;100.00;99942.88;636920;224;24888;-70